sensor_id;sensor_type;location;lat;lon;timestamp;P1;durP1;ratioP1;P2;durP2;ratioP2
16314;SDS011;8266;52.150;4.768;2024-02-21T00:00:02;8.95;;;2.70;;
16314;SDS011;8266;52.150;4.768;2024-02-21T00:02:30;11.98;;;2.58;;
16314;SDS011;8266;52.150;4.768;2024-02-21T00:04:57;15.63;;;2.55;;
16314;SDS011;8266;52.150;4.768;2024-02-21T00:07:24;11.80;;;3.00;;
16314;SDS011;8266;52.150;4.768;2024-02-21T00:09:53;10.30;;;2.22;;
16314;SDS011;8266;52.150;4.768;2024-02-21T00:12:20;9.75;;;2.63;;
16314;SDS011;8266;52.150;4.768;2024-02-21T00:14:47;13.93;;;3.38;;
16314;SDS011;8266;52.150;4.768;2024-02-21T00:17:14;11.15;;;2.80;;
16314;SDS011;8266;52.150;4.768;2024-02-21T00:19:41;8.50;;;2.22;;
16314;SDS011;8266;52.150;4.768;2024-02-21T00:22:08;12.80;;;2.60;;
16314;SDS011;8266;52.150;4.768;2024-02-21T00:24:35;8.02;;;2.70;;
16314;SDS011;8266;52.150;4.768;2024-02-21T00:27:05;11.40;;;2.75;;
16314;SDS011;8266;52.150;4.768;2024-02-21T00:29:32;9.20;;;2.38;;
16314;SDS011;8266;52.150;4.768;2024-02-21T00:32:00;12.80;;;3.10;;
16314;SDS011;8266;52.150;4.768;2024-02-21T00:34:27;12.38;;;3.13;;
16314;SDS011;8266;52.150;4.768;2024-02-21T00:36:54;12.93;;;2.78;;
16314;SDS011;8266;52.150;4.768;2024-02-21T00:39:22;15.07;;;3.20;;
16314;SDS011;8266;52.150;4.768;2024-02-21T00:41:49;16.35;;;3.97;;
16314;SDS011;8266;52.150;4.768;2024-02-21T00:44:17;11.13;;;3.28;;
16314;SDS011;8266;52.150;4.768;2024-02-21T00:46:44;13.23;;;2.45;;
16314;SDS011;8266;52.150;4.768;2024-02-21T00:49:12;10.90;;;2.67;;
16314;SDS011;8266;52.150;4.768;2024-02-21T00:51:39;10.70;;;2.80;;
16314;SDS011;8266;52.150;4.768;2024-02-21T00:54:06;13.40;;;3.33;;
16314;SDS011;8266;52.150;4.768;2024-02-21T00:56:33;9.38;;;2.42;;
16314;SDS011;8266;52.150;4.768;2024-02-21T00:59:00;17.33;;;2.90;;
16314;SDS011;8266;52.150;4.768;2024-02-21T01:01:29;11.95;;;3.33;;
16314;SDS011;8266;52.150;4.768;2024-02-21T01:03:56;13.10;;;2.60;;
16314;SDS011;8266;52.150;4.768;2024-02-21T01:06:23;9.05;;;2.35;;
16314;SDS011;8266;52.150;4.768;2024-02-21T01:08:50;13.38;;;2.80;;
16314;SDS011;8266;52.150;4.768;2024-02-21T01:11:17;11.88;;;2.58;;
16314;SDS011;8266;52.150;4.768;2024-02-21T01:13:44;21.15;;;3.88;;
16314;SDS011;8266;52.150;4.768;2024-02-21T01:16:12;11.93;;;3.17;;
16314;SDS011;8266;52.150;4.768;2024-02-21T01:18:40;11.10;;;3.00;;
16314;SDS011;8266;52.150;4.768;2024-02-21T01:21:07;10.85;;;3.28;;
16314;SDS011;8266;52.150;4.768;2024-02-21T01:23:35;17.58;;;3.47;;
16314;SDS011;8266;52.150;4.768;2024-02-21T01:26:02;10.15;;;2.58;;
16314;SDS011;8266;52.150;4.768;2024-02-21T01:28:33;11.73;;;3.00;;
16314;SDS011;8266;52.150;4.768;2024-02-21T01:31:00;12.80;;;2.90;;
16314;SDS011;8266;52.150;4.768;2024-02-21T01:33:28;12.32;;;2.90;;
16314;SDS011;8266;52.150;4.768;2024-02-21T01:36:01;10.98;;;3.05;;
16314;SDS011;8266;52.150;4.768;2024-02-21T01:38:28;15.65;;;2.80;;
16314;SDS011;8266;52.150;4.768;2024-02-21T01:40:57;13.50;;;3.10;;
16314;SDS011;8266;52.150;4.768;2024-02-21T01:43:24;11.75;;;3.33;;
16314;SDS011;8266;52.150;4.768;2024-02-21T01:45:52;11.98;;;2.90;;
16314;SDS011;8266;52.150;4.768;2024-02-21T01:48:21;9.88;;;3.05;;
16314;SDS011;8266;52.150;4.768;2024-02-21T01:50:49;10.20;;;2.65;;
16314;SDS011;8266;52.150;4.768;2024-02-21T01:53:18;9.27;;;2.97;;
16314;SDS011;8266;52.150;4.768;2024-02-21T01:55:47;14.75;;;3.78;;
16314;SDS011;8266;52.150;4.768;2024-02-21T01:58:15;13.48;;;3.30;;
16314;SDS011;8266;52.150;4.768;2024-02-21T02:00:43;12.30;;;3.03;;
16314;SDS011;8266;52.150;4.768;2024-02-21T02:03:11;13.50;;;3.05;;
16314;SDS011;8266;52.150;4.768;2024-02-21T02:05:42;8.18;;;2.60;;
16314;SDS011;8266;52.150;4.768;2024-02-21T02:08:10;13.85;;;2.85;;
16314;SDS011;8266;52.150;4.768;2024-02-21T02:10:38;12.77;;;3.63;;
16314;SDS011;8266;52.150;4.768;2024-02-21T02:13:06;10.32;;;3.60;;
16314;SDS011;8266;52.150;4.768;2024-02-21T02:15:40;13.05;;;3.33;;
16314;SDS011;8266;52.150;4.768;2024-02-21T02:18:08;9.32;;;2.80;;
16314;SDS011;8266;52.150;4.768;2024-02-21T02:20:35;13.43;;;3.38;;
16314;SDS011;8266;52.150;4.768;2024-02-21T02:23:04;11.25;;;2.80;;
16314;SDS011;8266;52.150;4.768;2024-02-21T02:25:35;8.05;;;2.70;;
16314;SDS011;8266;52.150;4.768;2024-02-21T02:28:02;13.65;;;3.22;;
16314;SDS011;8266;52.150;4.768;2024-02-21T02:30:31;12.77;;;2.95;;
16314;SDS011;8266;52.150;4.768;2024-02-21T02:33:01;12.50;;;3.20;;
16314;SDS011;8266;52.150;4.768;2024-02-21T02:35:28;13.43;;;4.00;;
16314;SDS011;8266;52.150;4.768;2024-02-21T02:37:56;13.27;;;3.50;;
16314;SDS011;8266;52.150;4.768;2024-02-21T02:40:23;11.30;;;3.08;;
16314;SDS011;8266;52.150;4.768;2024-02-21T02:42:52;11.63;;;2.97;;
16314;SDS011;8266;52.150;4.768;2024-02-21T02:45:20;9.10;;;2.67;;
16314;SDS011;8266;52.150;4.768;2024-02-21T02:47:49;11.75;;;3.08;;
16314;SDS011;8266;52.150;4.768;2024-02-21T02:50:16;12.07;;;2.80;;
16314;SDS011;8266;52.150;4.768;2024-02-21T02:52:43;12.73;;;3.22;;
16314;SDS011;8266;52.150;4.768;2024-02-21T02:55:10;11.60;;;2.78;;
16314;SDS011;8266;52.150;4.768;2024-02-21T02:57:37;13.73;;;3.50;;
16314;SDS011;8266;52.150;4.768;2024-02-21T03:00:08;10.52;;;3.22;;
16314;SDS011;8266;52.150;4.768;2024-02-21T03:02:38;8.43;;;3.08;;
16314;SDS011;8266;52.150;4.768;2024-02-21T03:05:11;10.38;;;2.85;;
16314;SDS011;8266;52.150;4.768;2024-02-21T03:07:39;12.60;;;3.20;;
16314;SDS011;8266;52.150;4.768;2024-02-21T03:10:07;9.10;;;2.72;;
16314;SDS011;8266;52.150;4.768;2024-02-21T03:12:35;14.10;;;3.53;;
16314;SDS011;8266;52.150;4.768;2024-02-21T03:15:03;10.23;;;2.72;;
16314;SDS011;8266;52.150;4.768;2024-02-21T03:17:32;8.07;;;3.05;;
16314;SDS011;8266;52.150;4.768;2024-02-21T03:20:01;9.77;;;3.08;;
16314;SDS011;8266;52.150;4.768;2024-02-21T03:22:30;12.43;;;3.88;;
16314;SDS011;8266;52.150;4.768;2024-02-21T03:24:57;10.95;;;3.35;;
16314;SDS011;8266;52.150;4.768;2024-02-21T03:27:25;23.80;;;5.38;;
16314;SDS011;8266;52.150;4.768;2024-02-21T03:29:52;6.53;;;2.88;;
16314;SDS011;8266;52.150;4.768;2024-02-21T03:32:19;13.80;;;4.00;;
16314;SDS011;8266;52.150;4.768;2024-02-21T03:34:48;8.25;;;3.10;;
16314;SDS011;8266;52.150;4.768;2024-02-21T03:37:15;9.30;;;3.10;;
16314;SDS011;8266;52.150;4.768;2024-02-21T03:39:42;6.90;;;3.38;;
16314;SDS011;8266;52.150;4.768;2024-02-21T03:42:10;12.25;;;3.05;;
16314;SDS011;8266;52.150;4.768;2024-02-21T03:44:37;11.23;;;3.08;;
16314;SDS011;8266;52.150;4.768;2024-02-21T03:47:04;7.20;;;2.58;;
16314;SDS011;8266;52.150;4.768;2024-02-21T03:49:31;11.15;;;3.08;;
16314;SDS011;8266;52.150;4.768;2024-02-21T03:52:00;8.20;;;2.95;;
16314;SDS011;8266;52.150;4.768;2024-02-21T03:54:27;8.45;;;2.40;;
16314;SDS011;8266;52.150;4.768;2024-02-21T03:56:54;8.80;;;3.47;;
16314;SDS011;8266;52.150;4.768;2024-02-21T03:59:22;8.00;;;2.97;;
16314;SDS011;8266;52.150;4.768;2024-02-21T04:01:51;7.85;;;2.60;;
16314;SDS011;8266;52.150;4.768;2024-02-21T04:04:18;5.82;;;2.42;;
16314;SDS011;8266;52.150;4.768;2024-02-21T04:06:46;9.93;;;3.55;;
16314;SDS011;8266;52.150;4.768;2024-02-21T04:09:15;9.15;;;3.17;;
16314;SDS011;8266;52.150;4.768;2024-02-21T04:11:42;11.57;;;3.20;;
16314;SDS011;8266;52.150;4.768;2024-02-21T04:14:09;8.88;;;2.90;;
16314;SDS011;8266;52.150;4.768;2024-02-21T04:16:36;10.60;;;2.65;;
16314;SDS011;8266;52.150;4.768;2024-02-21T04:19:04;10.60;;;2.83;;
16314;SDS011;8266;52.150;4.768;2024-02-21T04:21:31;9.52;;;3.50;;
16314;SDS011;8266;52.150;4.768;2024-02-21T04:23:58;9.02;;;2.83;;
16314;SDS011;8266;52.150;4.768;2024-02-21T04:26:28;10.15;;;3.40;;
16314;SDS011;8266;52.150;4.768;2024-02-21T04:28:55;13.45;;;4.90;;
16314;SDS011;8266;52.150;4.768;2024-02-21T04:31:22;12.07;;;3.83;;
16314;SDS011;8266;52.150;4.768;2024-02-21T04:33:50;11.77;;;4.15;;
16314;SDS011;8266;52.150;4.768;2024-02-21T04:36:18;10.85;;;3.50;;
16314;SDS011;8266;52.150;4.768;2024-02-21T04:38:45;6.70;;;3.83;;
16314;SDS011;8266;52.150;4.768;2024-02-21T04:41:12;11.82;;;4.40;;
16314;SDS011;8266;52.150;4.768;2024-02-21T04:43:40;9.98;;;4.75;;
16314;SDS011;8266;52.150;4.768;2024-02-21T04:46:07;10.00;;;4.95;;
16314;SDS011;8266;52.150;4.768;2024-02-21T04:48:35;9.15;;;4.95;;
16314;SDS011;8266;52.150;4.768;2024-02-21T04:51:03;7.70;;;4.97;;
16314;SDS011;8266;52.150;4.768;2024-02-21T04:53:30;8.82;;;5.40;;
16314;SDS011;8266;52.150;4.768;2024-02-21T04:55:57;10.38;;;5.95;;
16314;SDS011;8266;52.150;4.768;2024-02-21T04:58:25;7.22;;;5.05;;
16314;SDS011;8266;52.150;4.768;2024-02-21T05:00:53;11.05;;;5.60;;
16314;SDS011;8266;52.150;4.768;2024-02-21T05:03:21;9.90;;;5.45;;
16314;SDS011;8266;52.150;4.768;2024-02-21T05:05:48;8.55;;;5.32;;
16314;SDS011;8266;52.150;4.768;2024-02-21T05:08:15;10.20;;;6.05;;
16314;SDS011;8266;52.150;4.768;2024-02-21T05:10:43;12.45;;;6.30;;
16314;SDS011;8266;52.150;4.768;2024-02-21T05:13:10;10.00;;;6.40;;
16314;SDS011;8266;52.150;4.768;2024-02-21T05:15:37;9.50;;;6.65;;
16314;SDS011;8266;52.150;4.768;2024-02-21T05:18:05;12.88;;;6.70;;
16314;SDS011;8266;52.150;4.768;2024-02-21T05:20:32;9.93;;;6.25;;
16314;SDS011;8266;52.150;4.768;2024-02-21T05:23:02;9.85;;;6.35;;
16314;SDS011;8266;52.150;4.768;2024-02-21T05:25:30;12.40;;;7.13;;
16314;SDS011;8266;52.150;4.768;2024-02-21T05:27:57;10.77;;;6.25;;
16314;SDS011;8266;52.150;4.768;2024-02-21T05:30:27;11.10;;;7.40;;
16314;SDS011;8266;52.150;4.768;2024-02-21T05:32:54;10.73;;;7.07;;
16314;SDS011;8266;52.150;4.768;2024-02-21T05:35:26;9.95;;;7.20;;
16314;SDS011;8266;52.150;4.768;2024-02-21T05:37:54;8.55;;;7.03;;
16314;SDS011;8266;52.150;4.768;2024-02-21T05:40:21;10.82;;;8.02;;
16314;SDS011;8266;52.150;4.768;2024-02-21T05:42:48;9.80;;;7.55;;
16314;SDS011;8266;52.150;4.768;2024-02-21T05:45:16;9.77;;;7.78;;
16314;SDS011;8266;52.150;4.768;2024-02-21T05:47:44;10.95;;;7.60;;
16314;SDS011;8266;52.150;4.768;2024-02-21T05:50:11;11.55;;;7.88;;
16314;SDS011;8266;52.150;4.768;2024-02-21T05:52:40;8.98;;;7.60;;
16314;SDS011;8266;52.150;4.768;2024-02-21T05:55:08;12.32;;;7.75;;
16314;SDS011;8266;52.150;4.768;2024-02-21T05:57:35;10.93;;;7.05;;
16314;SDS011;8266;52.150;4.768;2024-02-21T06:00:03;8.50;;;6.95;;
16314;SDS011;8266;52.150;4.768;2024-02-21T06:02:31;9.68;;;7.20;;
16314;SDS011;8266;52.150;4.768;2024-02-21T06:04:59;10.13;;;7.13;;
16314;SDS011;8266;52.150;4.768;2024-02-21T06:07:26;8.52;;;6.65;;
16314;SDS011;8266;52.150;4.768;2024-02-21T06:09:55;8.15;;;6.18;;
16314;SDS011;8266;52.150;4.768;2024-02-21T06:12:22;7.72;;;6.65;;
16314;SDS011;8266;52.150;4.768;2024-02-21T06:14:49;9.93;;;7.32;;
16314;SDS011;8266;52.150;4.768;2024-02-21T06:17:16;9.68;;;6.80;;
16314;SDS011;8266;52.150;4.768;2024-02-21T06:19:43;8.85;;;6.80;;
16314;SDS011;8266;52.150;4.768;2024-02-21T06:22:11;7.88;;;7.03;;
16314;SDS011;8266;52.150;4.768;2024-02-21T06:24:38;11.38;;;7.63;;
16314;SDS011;8266;52.150;4.768;2024-02-21T06:27:09;9.98;;;7.75;;
16314;SDS011;8266;52.150;4.768;2024-02-21T06:29:41;9.70;;;7.85;;
16314;SDS011;8266;52.150;4.768;2024-02-21T06:32:08;9.73;;;8.10;;
16314;SDS011;8266;52.150;4.768;2024-02-21T06:34:35;14.13;;;8.68;;
16314;SDS011;8266;52.150;4.768;2024-02-21T06:37:02;10.93;;;7.60;;
16314;SDS011;8266;52.150;4.768;2024-02-21T06:39:30;10.48;;;8.57;;
16314;SDS011;8266;52.150;4.768;2024-02-21T06:41:57;10.82;;;8.52;;
16314;SDS011;8266;52.150;4.768;2024-02-21T06:44:25;10.65;;;8.88;;
16314;SDS011;8266;52.150;4.768;2024-02-21T06:46:53;9.15;;;8.23;;
16314;SDS011;8266;52.150;4.768;2024-02-21T06:49:20;11.32;;;8.43;;
16314;SDS011;8266;52.150;4.768;2024-02-21T06:51:48;13.15;;;9.27;;
16314;SDS011;8266;52.150;4.768;2024-02-21T06:54:15;10.65;;;8.60;;
16314;SDS011;8266;52.150;4.768;2024-02-21T06:56:42;14.32;;;8.95;;
16314;SDS011;8266;52.150;4.768;2024-02-21T06:59:09;11.15;;;8.57;;
16314;SDS011;8266;52.150;4.768;2024-02-21T07:01:45;11.80;;;8.65;;
16314;SDS011;8266;52.150;4.768;2024-02-21T07:04:12;11.65;;;8.98;;
16314;SDS011;8266;52.150;4.768;2024-02-21T07:06:40;10.05;;;9.00;;
16314;SDS011;8266;52.150;4.768;2024-02-21T07:09:07;9.70;;;8.25;;
16314;SDS011;8266;52.150;4.768;2024-02-21T07:11:34;12.38;;;8.98;;
16314;SDS011;8266;52.150;4.768;2024-02-21T07:14:01;13.90;;;8.18;;
16314;SDS011;8266;52.150;4.768;2024-02-21T07:16:30;11.68;;;8.48;;
16314;SDS011;8266;52.150;4.768;2024-02-21T07:18:59;9.80;;;7.85;;
16314;SDS011;8266;52.150;4.768;2024-02-21T07:21:26;14.43;;;9.07;;
16314;SDS011;8266;52.150;4.768;2024-02-21T07:23:53;10.43;;;7.80;;
16314;SDS011;8266;52.150;4.768;2024-02-21T07:26:20;9.35;;;8.07;;
16314;SDS011;8266;52.150;4.768;2024-02-21T07:28:48;15.98;;;8.25;;
16314;SDS011;8266;52.150;4.768;2024-02-21T07:31:14;14.23;;;8.77;;
16314;SDS011;8266;52.150;4.768;2024-02-21T07:33:42;12.63;;;8.05;;
16314;SDS011;8266;52.150;4.768;2024-02-21T07:36:10;13.73;;;7.90;;
16314;SDS011;8266;52.150;4.768;2024-02-21T07:38:38;12.65;;;8.23;;
16314;SDS011;8266;52.150;4.768;2024-02-21T07:41:05;14.85;;;9.15;;
16314;SDS011;8266;52.150;4.768;2024-02-21T07:43:31;12.50;;;9.32;;
16314;SDS011;8266;52.150;4.768;2024-02-21T07:45:59;10.85;;;8.10;;
16314;SDS011;8266;52.150;4.768;2024-02-21T07:48:26;13.32;;;9.07;;
16314;SDS011;8266;52.150;4.768;2024-02-21T07:50:53;12.75;;;8.85;;
16314;SDS011;8266;52.150;4.768;2024-02-21T07:53:21;11.65;;;8.52;;
16314;SDS011;8266;52.150;4.768;2024-02-21T07:55:48;14.80;;;8.80;;
16314;SDS011;8266;52.150;4.768;2024-02-21T07:58:15;11.45;;;9.10;;
16314;SDS011;8266;52.150;4.768;2024-02-21T08:00:42;12.13;;;8.73;;
16314;SDS011;8266;52.150;4.768;2024-02-21T08:03:09;13.00;;;9.43;;
16314;SDS011;8266;52.150;4.768;2024-02-21T08:05:37;12.57;;;8.98;;
16314;SDS011;8266;52.150;4.768;2024-02-21T08:08:04;12.75;;;8.10;;
16314;SDS011;8266;52.150;4.768;2024-02-21T08:10:34;12.95;;;8.95;;
16314;SDS011;8266;52.150;4.768;2024-02-21T08:13:01;13.70;;;9.35;;
16314;SDS011;8266;52.150;4.768;2024-02-21T08:15:28;14.70;;;9.30;;
16314;SDS011;8266;52.150;4.768;2024-02-21T08:17:55;13.88;;;9.43;;
16314;SDS011;8266;52.150;4.768;2024-02-21T08:20:24;11.85;;;9.20;;
16314;SDS011;8266;52.150;4.768;2024-02-21T08:22:51;13.15;;;9.70;;
16314;SDS011;8266;52.150;4.768;2024-02-21T08:25:18;12.77;;;9.20;;
16314;SDS011;8266;52.150;4.768;2024-02-21T08:30:23;12.48;;;9.85;;
16314;SDS011;8266;52.150;4.768;2024-02-21T08:32:50;16.77;;;10.13;;
16314;SDS011;8266;52.150;4.768;2024-02-21T08:35:19;15.75;;;9.77;;
16314;SDS011;8266;52.150;4.768;2024-02-21T08:37:47;15.15;;;9.85;;
16314;SDS011;8266;52.150;4.768;2024-02-21T08:40:15;15.80;;;10.15;;
16314;SDS011;8266;52.150;4.768;2024-02-21T08:42:46;13.00;;;10.35;;
16314;SDS011;8266;52.150;4.768;2024-02-21T08:45:15;10.30;;;9.20;;
16314;SDS011;8266;52.150;4.768;2024-02-21T08:47:42;14.57;;;9.55;;
16314;SDS011;8266;52.150;4.768;2024-02-21T08:50:10;13.18;;;10.00;;
16314;SDS011;8266;52.150;4.768;2024-02-21T08:52:37;11.90;;;8.73;;
16314;SDS011;8266;52.150;4.768;2024-02-21T08:55:04;11.93;;;8.75;;
16314;SDS011;8266;52.150;4.768;2024-02-21T08:57:32;13.70;;;9.88;;
16314;SDS011;8266;52.150;4.768;2024-02-21T09:00:03;10.95;;;8.65;;
16314;SDS011;8266;52.150;4.768;2024-02-21T09:02:37;11.27;;;8.65;;
16314;SDS011;8266;52.150;4.768;2024-02-21T09:05:06;10.60;;;8.02;;
16314;SDS011;8266;52.150;4.768;2024-02-21T09:07:34;11.00;;;8.65;;
16314;SDS011;8266;52.150;4.768;2024-02-21T09:10:01;15.10;;;8.98;;
16314;SDS011;8266;52.150;4.768;2024-02-21T09:12:29;11.10;;;8.55;;
16314;SDS011;8266;52.150;4.768;2024-02-21T09:14:56;10.32;;;8.73;;
16314;SDS011;8266;52.150;4.768;2024-02-21T09:17:23;13.10;;;9.68;;
16314;SDS011;8266;52.150;4.768;2024-02-21T09:19:52;11.85;;;9.52;;
16314;SDS011;8266;52.150;4.768;2024-02-21T09:22:21;12.13;;;10.82;;
16314;SDS011;8266;52.150;4.768;2024-02-21T09:24:48;14.60;;;10.70;;
16314;SDS011;8266;52.150;4.768;2024-02-21T09:27:15;13.57;;;11.20;;
16314;SDS011;8266;52.150;4.768;2024-02-21T09:29:42;12.45;;;11.15;;
16314;SDS011;8266;52.150;4.768;2024-02-21T09:32:09;15.00;;;12.00;;
16314;SDS011;8266;52.150;4.768;2024-02-21T09:34:36;13.43;;;11.43;;
16314;SDS011;8266;52.150;4.768;2024-02-21T09:37:05;14.07;;;12.23;;
16314;SDS011;8266;52.150;4.768;2024-02-21T09:39:32;13.50;;;10.60;;
16314;SDS011;8266;52.150;4.768;2024-02-21T09:41:59;15.10;;;11.38;;
16314;SDS011;8266;52.150;4.768;2024-02-21T09:44:33;13.32;;;11.30;;
16314;SDS011;8266;52.150;4.768;2024-02-21T09:47:04;13.77;;;11.38;;
16314;SDS011;8266;52.150;4.768;2024-02-21T09:49:37;15.10;;;11.15;;
16314;SDS011;8266;52.150;4.768;2024-02-21T09:52:07;12.02;;;10.75;;
16314;SDS011;8266;52.150;4.768;2024-02-21T09:54:35;14.68;;;9.90;;
16314;SDS011;8266;52.150;4.768;2024-02-21T09:57:02;15.43;;;11.13;;
16314;SDS011;8266;52.150;4.768;2024-02-21T09:59:32;11.70;;;9.38;;
16314;SDS011;8266;52.150;4.768;2024-02-21T10:02:00;11.80;;;10.43;;
16314;SDS011;8266;52.150;4.768;2024-02-21T10:04:27;13.55;;;10.13;;
16314;SDS011;8266;52.150;4.768;2024-02-21T10:06:55;12.23;;;9.63;;
16314;SDS011;8266;52.150;4.768;2024-02-21T10:09:25;11.85;;;8.77;;
16314;SDS011;8266;52.150;4.768;2024-02-21T10:11:54;15.40;;;8.52;;
16314;SDS011;8266;52.150;4.768;2024-02-21T10:14:21;12.38;;;8.07;;
16314;SDS011;8266;52.150;4.768;2024-02-21T10:16:49;12.10;;;8.07;;
16314;SDS011;8266;52.150;4.768;2024-02-21T10:19:23;10.00;;;7.55;;
16314;SDS011;8266;52.150;4.768;2024-02-21T10:24:30;9.63;;;7.65;;
16314;SDS011;8266;52.150;4.768;2024-02-21T10:27:04;11.30;;;7.30;;
16314;SDS011;8266;52.150;4.768;2024-02-21T10:29:33;9.85;;;7.32;;
16314;SDS011;8266;52.150;4.768;2024-02-21T10:32:04;10.27;;;7.07;;
16314;SDS011;8266;52.150;4.768;2024-02-21T10:34:32;11.80;;;7.57;;
16314;SDS011;8266;52.150;4.768;2024-02-21T10:37:01;9.38;;;7.25;;
16314;SDS011;8266;52.150;4.768;2024-02-21T10:39:30;8.07;;;7.03;;
16314;SDS011;8266;52.150;4.768;2024-02-21T10:41:59;8.77;;;6.60;;
16314;SDS011;8266;52.150;4.768;2024-02-21T10:44:29;8.98;;;6.82;;
16314;SDS011;8266;52.150;4.768;2024-02-21T10:46:57;10.25;;;6.18;;
16314;SDS011;8266;52.150;4.768;2024-02-21T10:49:26;7.50;;;6.00;;
16314;SDS011;8266;52.150;4.768;2024-02-21T10:51:59;9.10;;;6.45;;
16314;SDS011;8266;52.150;4.768;2024-02-21T10:54:38;9.00;;;6.55;;
16314;SDS011;8266;52.150;4.768;2024-02-21T10:57:10;11.20;;;7.03;;
16314;SDS011;8266;52.150;4.768;2024-02-21T10:59:40;9.20;;;6.47;;
16314;SDS011;8266;52.150;4.768;2024-02-21T11:02:07;8.18;;;7.13;;
16314;SDS011;8266;52.150;4.768;2024-02-21T11:04:35;8.80;;;7.28;;
16314;SDS011;8266;52.150;4.768;2024-02-21T11:07:03;9.35;;;7.43;;
16314;SDS011;8266;52.150;4.768;2024-02-21T11:09:32;10.07;;;7.57;;
16314;SDS011;8266;52.150;4.768;2024-02-21T11:12:03;9.02;;;7.82;;
16314;SDS011;8266;52.150;4.768;2024-02-21T11:14:31;8.32;;;7.40;;
16314;SDS011;8266;52.150;4.768;2024-02-21T11:17:00;7.97;;;7.28;;
16314;SDS011;8266;52.150;4.768;2024-02-21T11:19:28;7.22;;;6.57;;
16314;SDS011;8266;52.150;4.768;2024-02-21T11:21:56;7.88;;;7.05;;
16314;SDS011;8266;52.150;4.768;2024-02-21T11:24:26;7.00;;;6.28;;
16314;SDS011;8266;52.150;4.768;2024-02-21T11:26:55;11.55;;;6.63;;
16314;SDS011;8266;52.150;4.768;2024-02-21T11:29:24;7.47;;;6.70;;
16314;SDS011;8266;52.150;4.768;2024-02-21T11:31:52;7.47;;;6.75;;
16314;SDS011;8266;52.150;4.768;2024-02-21T11:34:28;7.38;;;6.68;;
16314;SDS011;8266;52.150;4.768;2024-02-21T11:36:55;7.50;;;6.80;;
16314;SDS011;8266;52.150;4.768;2024-02-21T11:39:23;7.50;;;6.28;;
16314;SDS011;8266;52.150;4.768;2024-02-21T11:42:01;6.28;;;5.60;;
16314;SDS011;8266;52.150;4.768;2024-02-21T11:44:32;6.35;;;5.63;;
16314;SDS011;8266;52.150;4.768;2024-02-21T11:47:03;6.05;;;5.47;;
16314;SDS011;8266;52.150;4.768;2024-02-21T11:49:30;6.70;;;5.63;;
16314;SDS011;8266;52.150;4.768;2024-02-21T11:52:02;9.45;;;6.15;;
16314;SDS011;8266;52.150;4.768;2024-02-21T11:54:30;6.85;;;5.90;;
16314;SDS011;8266;52.150;4.768;2024-02-21T11:56:57;7.80;;;7.03;;
16314;SDS011;8266;52.150;4.768;2024-02-21T11:59:24;7.50;;;6.47;;
16314;SDS011;8266;52.150;4.768;2024-02-21T12:01:53;7.60;;;6.57;;
16314;SDS011;8266;52.150;4.768;2024-02-21T12:04:20;11.95;;;7.50;;
16314;SDS011;8266;52.150;4.768;2024-02-21T12:06:49;8.75;;;7.10;;
16314;SDS011;8266;52.150;4.768;2024-02-21T12:09:16;7.38;;;6.65;;
16314;SDS011;8266;52.150;4.768;2024-02-21T12:11:43;7.43;;;6.72;;
16314;SDS011;8266;52.150;4.768;2024-02-21T12:14:11;6.78;;;6.07;;
16314;SDS011;8266;52.150;4.768;2024-02-21T12:16:42;6.35;;;5.72;;
16314;SDS011;8266;52.150;4.768;2024-02-21T12:19:14;8.15;;;5.93;;
16314;SDS011;8266;52.150;4.768;2024-02-21T12:21:42;7.63;;;5.78;;
16314;SDS011;8266;52.150;4.768;2024-02-21T12:24:13;8.57;;;5.88;;
16314;SDS011;8266;52.150;4.768;2024-02-21T12:26:40;6.25;;;5.40;;
16314;SDS011;8266;52.150;4.768;2024-02-21T12:29:08;5.72;;;5.07;;
16314;SDS011;8266;52.150;4.768;2024-02-21T12:31:35;8.90;;;5.50;;
16314;SDS011;8266;52.150;4.768;2024-02-21T12:34:03;6.35;;;5.70;;
16314;SDS011;8266;52.150;4.768;2024-02-21T12:36:32;6.45;;;5.60;;
16314;SDS011;8266;52.150;4.768;2024-02-21T12:38:59;6.22;;;5.28;;
16314;SDS011;8266;52.150;4.768;2024-02-21T12:41:30;5.85;;;5.05;;
16314;SDS011;8266;52.150;4.768;2024-02-21T12:43:58;5.95;;;5.35;;
16314;SDS011;8266;52.150;4.768;2024-02-21T12:46:25;6.50;;;5.00;;
16314;SDS011;8266;52.150;4.768;2024-02-21T12:48:52;7.35;;;5.32;;
16314;SDS011;8266;52.150;4.768;2024-02-21T12:51:19;5.63;;;5.10;;
16314;SDS011;8266;52.150;4.768;2024-02-21T12:53:48;7.22;;;6.10;;
16314;SDS011;8266;52.150;4.768;2024-02-21T12:56:15;8.00;;;6.07;;
16314;SDS011;8266;52.150;4.768;2024-02-21T12:58:43;8.23;;;6.15;;
16314;SDS011;8266;52.150;4.768;2024-02-21T13:01:10;6.72;;;6.00;;
16314;SDS011;8266;52.150;4.768;2024-02-21T13:03:37;6.35;;;5.38;;
16314;SDS011;8266;52.150;4.768;2024-02-21T13:06:04;6.15;;;5.55;;
16314;SDS011;8266;52.150;4.768;2024-02-21T13:08:32;8.02;;;5.55;;
16314;SDS011;8266;52.150;4.768;2024-02-21T13:11:01;7.47;;;5.15;;
16314;SDS011;8266;52.150;4.768;2024-02-21T13:13:29;5.70;;;5.10;;
16314;SDS011;8266;52.150;4.768;2024-02-21T13:15:56;6.18;;;4.97;;
16314;SDS011;8266;52.150;4.768;2024-02-21T13:18:24;6.82;;;5.05;;
16314;SDS011;8266;52.150;4.768;2024-02-21T13:20:52;7.18;;;5.15;;
16314;SDS011;8266;52.150;4.768;2024-02-21T13:23:19;6.28;;;4.45;;
16314;SDS011;8266;52.150;4.768;2024-02-21T13:25:47;7.30;;;4.80;;
16314;SDS011;8266;52.150;4.768;2024-02-21T13:28:17;5.93;;;4.30;;
16314;SDS011;8266;52.150;4.768;2024-02-21T13:30:44;4.75;;;4.15;;
16314;SDS011;8266;52.150;4.768;2024-02-21T13:33:11;7.63;;;4.85;;
16314;SDS011;8266;52.150;4.768;2024-02-21T13:35:38;6.72;;;4.20;;
16314;SDS011;8266;52.150;4.768;2024-02-21T13:38:05;5.60;;;3.80;;
16314;SDS011;8266;52.150;4.768;2024-02-21T13:40:35;5.57;;;4.10;;
16314;SDS011;8266;52.150;4.768;2024-02-21T13:43:02;5.82;;;3.97;;
16314;SDS011;8266;52.150;4.768;2024-02-21T13:45:31;7.72;;;4.75;;
16314;SDS011;8266;52.150;4.768;2024-02-21T13:47:59;6.28;;;4.63;;
16314;SDS011;8266;52.150;4.768;2024-02-21T13:50:29;6.80;;;4.40;;
16314;SDS011;8266;52.150;4.768;2024-02-21T13:53:07;5.95;;;4.05;;
16314;SDS011;8266;52.150;4.768;2024-02-21T13:55:34;6.50;;;4.40;;
16314;SDS011;8266;52.150;4.768;2024-02-21T13:58:01;5.00;;;3.80;;
16314;SDS011;8266;52.150;4.768;2024-02-21T14:00:29;6.82;;;4.07;;
16314;SDS011;8266;52.150;4.768;2024-02-21T14:02:59;5.60;;;3.60;;
16314;SDS011;8266;52.150;4.768;2024-02-21T14:05:27;8.82;;;4.35;;
16314;SDS011;8266;52.150;4.768;2024-02-21T14:07:53;7.25;;;3.55;;
16314;SDS011;8266;52.150;4.768;2024-02-21T14:10:21;5.57;;;3.83;;
16314;SDS011;8266;52.150;4.768;2024-02-21T14:12:48;4.82;;;3.50;;
16314;SDS011;8266;52.150;4.768;2024-02-21T14:15:15;6.97;;;4.10;;
16314;SDS011;8266;52.150;4.768;2024-02-21T14:17:42;6.15;;;3.65;;
16314;SDS011;8266;52.150;4.768;2024-02-21T14:20:11;5.00;;;3.47;;
16314;SDS011;8266;52.150;4.768;2024-02-21T14:22:39;5.93;;;3.35;;
16314;SDS011;8266;52.150;4.768;2024-02-21T14:25:06;8.93;;;3.75;;
16314;SDS011;8266;52.150;4.768;2024-02-21T14:27:34;6.72;;;4.03;;
16314;SDS011;8266;52.150;4.768;2024-02-21T14:30:02;6.88;;;3.78;;
16314;SDS011;8266;52.150;4.768;2024-02-21T14:32:29;7.85;;;4.28;;
16314;SDS011;8266;52.150;4.768;2024-02-21T14:34:57;7.45;;;3.58;;
16314;SDS011;8266;52.150;4.768;2024-02-21T14:37:26;6.75;;;3.63;;
16314;SDS011;8266;52.150;4.768;2024-02-21T14:39:52;5.00;;;3.92;;
16314;SDS011;8266;52.150;4.768;2024-02-21T14:42:20;6.65;;;3.92;;
16314;SDS011;8266;52.150;4.768;2024-02-21T14:44:47;6.15;;;4.35;;
16314;SDS011;8266;52.150;4.768;2024-02-21T14:47:14;6.55;;;3.65;;
16314;SDS011;8266;52.150;4.768;2024-02-21T14:49:41;5.38;;;3.67;;
16314;SDS011;8266;52.150;4.768;2024-02-21T14:52:08;6.22;;;3.80;;
16314;SDS011;8266;52.150;4.768;2024-02-21T14:54:37;7.10;;;3.95;;
16314;SDS011;8266;52.150;4.768;2024-02-21T14:57:06;5.10;;;3.92;;
16314;SDS011;8266;52.150;4.768;2024-02-21T14:59:33;4.82;;;4.10;;
16314;SDS011;8266;52.150;4.768;2024-02-21T15:02:00;8.07;;;4.43;;